Aviation Digital Data Service (ADDS)

Output produced by METARs form (1103 UTC 30 April 2017)
found at http://www.aviationweather.gov/adds/metars/
 
SYCJ 301000Z 00000KT 8000 -SHRA FEW010CB BKN011 BKN036 24/24 Q1014 CB NW-NE/ E-SE TEMPO 6000 SHRA
TAF SYCJ 301046Z 3012/0112 06010KT 4000 SHRA-RA FEW012CB BKN013 OVC070
       
TAF SYKM 301046Z 3012/3023 05006KT 7000 SHRA BKN015 BKN038 OVC080
       
TAF SYLT 301046Z 3012/3023 VRB06KT 5000 SHRA-RA FEW008CB BKN010 OVC070